createdAt,value
2023-04-09T00:04:27.676Z,8.73
2023-04-09T00:09:30.742Z,11.85
2023-04-09T00:14:33.723Z,10.55
2023-04-09T00:19:36.123Z,11.23
2023-04-09T00:24:38.970Z,10.55
2023-04-09T00:29:41.464Z,11.75
2023-04-09T00:34:44.378Z,8.18
2023-04-09T00:39:47.892Z,8.85
2023-04-09T00:44:50.767Z,8.98
2023-04-09T00:49:53.562Z,8.75
2023-04-09T00:54:57.119Z,10.48
2023-04-09T00:59:59.740Z,13.35
2023-04-09T01:11:03.137Z,6.50
2023-04-09T01:16:09.502Z,9.80
2023-04-09T01:21:14.520Z,8.18
2023-04-09T01:26:22.077Z,7.95
2023-04-09T01:31:31.259Z,8.68
2023-04-09T01:36:34.572Z,10.15
2023-04-09T01:41:38.379Z,10.93
2023-04-09T01:46:41.657Z,6.70
2023-04-09T01:51:44.673Z,7.25
2023-04-09T01:56:48.689Z,9.13
2023-04-09T02:01:56.454Z,8.15
2023-04-09T02:07:02.326Z,10.13
2023-04-09T02:12:06.336Z,7.50
2023-04-09T02:17:09.225Z,12.60
2023-04-09T02:22:12.346Z,7.65
2023-04-09T02:27:15.085Z,12.10
2023-04-09T02:32:17.677Z,7.78
2023-04-09T02:37:20.818Z,7.38
2023-04-09T02:42:23.281Z,11.45
2023-04-09T02:47:27.503Z,9.10
2023-04-09T02:52:30.611Z,10.05
2023-04-09T02:57:33.900Z,7.47
2023-04-09T03:02:36.634Z,7.22
2023-04-09T03:07:39.284Z,8.20
2023-04-09T03:12:44.835Z,5.30
2023-04-09T03:17:47.707Z,5.50
2023-04-09T03:22:50.650Z,6.32
2023-04-09T03:28:04.366Z,7.03
2023-04-09T03:33:16.774Z,6.65
2023-04-09T03:38:29.406Z,8.70
2023-04-09T03:43:32.889Z,10.80
2023-04-09T03:48:36.283Z,12.43
2023-04-09T03:53:40.734Z,8.38
2023-04-09T03:58:43.798Z,9.05
2023-04-09T04:03:49.520Z,9.05
2023-04-09T04:08:58.714Z,10.30
2023-04-09T04:14:10.168Z,7.30
2023-04-09T04:19:14.076Z,9.02
2023-04-09T04:24:21.730Z,7.43
2023-04-09T04:29:24.492Z,8.98
2023-04-09T04:34:31.138Z,8.05
2023-04-09T04:39:41.244Z,7.07
2023-04-09T04:44:47.971Z,9.98
2023-04-09T04:50:10.993Z,8.63
2023-04-09T04:55:37.061Z,8.68
2023-04-09T05:00:40.122Z,8.07
2023-04-09T05:05:43.816Z,12.18
2023-04-09T05:10:47.242Z,9.38
2023-04-09T05:20:52.144Z,8.75
2023-04-09T05:25:54.909Z,7.80
2023-04-09T05:31:12.208Z,5.32
2023-04-09T05:36:21.633Z,10.35
2023-04-09T05:41:24.430Z,7.35
2023-04-09T05:46:47.564Z,8.60
2023-04-09T05:51:54.244Z,8.23
2023-04-09T05:57:02.021Z,9.00
2023-04-09T06:02:11.482Z,8.20
2023-04-09T06:07:14.547Z,10.98
2023-04-09T06:12:18.166Z,13.00
2023-04-09T06:17:21.072Z,8.00
2023-04-09T06:22:23.575Z,7.15
2023-04-09T06:27:26.922Z,9.93
2023-04-09T06:37:32.210Z,8.02
2023-04-09T06:42:35.169Z,6.90
2023-04-09T06:47:50.222Z,10.52
2023-04-09T06:52:53.073Z,6.40
2023-04-09T06:57:55.609Z,7.95
2023-04-09T07:02:58.492Z,11.25
2023-04-09T07:08:01.820Z,10.98
2023-04-09T07:13:04.362Z,5.70
2023-04-09T07:18:06.897Z,6.50
2023-04-09T07:23:09.597Z,7.60
2023-04-09T07:28:12.194Z,5.55
2023-04-09T07:33:14.724Z,8.18
2023-04-09T07:38:17.538Z,7.18
2023-04-09T07:43:21.486Z,8.77
2023-04-09T07:48:25.301Z,5.13
2023-04-09T07:53:27.939Z,6.65
2023-04-09T07:58:30.734Z,8.95
2023-04-09T08:08:39.210Z,9.75
2023-04-09T08:13:42.029Z,8.02
2023-04-09T08:18:44.623Z,6.80
2023-04-09T08:23:47.197Z,7.45
2023-04-09T08:28:49.876Z,8.13
2023-04-09T08:33:53.864Z,6.13
2023-04-09T08:38:56.981Z,7.60
2023-04-09T08:44:00.097Z,9.25
2023-04-09T08:49:03.049Z,9.27
2023-04-09T08:54:05.827Z,9.25
2023-04-09T08:59:08.542Z,7.00
2023-04-09T09:04:11.821Z,7.85
2023-04-09T09:09:16.423Z,5.53
2023-04-09T09:14:19.736Z,5.32
2023-04-09T09:19:26.534Z,9.10
2023-04-09T09:24:29.666Z,10.05
2023-04-09T09:29:33.242Z,10.10
2023-04-09T09:34:35.894Z,7.63
2023-04-09T09:39:47.332Z,8.60
2023-04-09T09:44:50.414Z,6.95
2023-04-09T09:49:53.478Z,12.00
2023-04-09T09:54:59.192Z,7.70
2023-04-09T10:00:02.476Z,10.05
2023-04-09T10:05:11.957Z,10.50
2023-04-09T10:10:15.250Z,5.38
2023-04-09T10:15:19.351Z,6.22
2023-04-09T10:25:24.236Z,8.40
2023-04-09T10:30:34.111Z,9.85
2023-04-09T10:40:42.902Z,8.63
2023-04-09T10:45:45.405Z,9.30
2023-04-09T10:50:50.813Z,6.30
2023-04-09T10:55:54.593Z,6.20
2023-04-09T11:01:02.137Z,13.98
2023-04-09T11:06:10.613Z,7.65
2023-04-09T11:11:13.590Z,8.60
2023-04-09T11:16:22.688Z,8.05
2023-04-09T11:21:28.169Z,9.10
2023-04-09T11:26:37.166Z,8.68
2023-04-09T11:31:39.824Z,7.25
2023-04-09T11:36:42.529Z,9.85
2023-04-09T11:41:45.680Z,11.52
2023-04-09T11:46:49.430Z,10.32
2023-04-09T11:51:52.152Z,6.50
2023-04-09T11:56:56.385Z,13.07
2023-04-09T12:01:59.317Z,5.93
2023-04-09T12:07:02.030Z,10.32
2023-04-09T12:12:09.262Z,10.43
2023-04-09T12:17:11.879Z,10.68
2023-04-09T12:22:14.614Z,9.23
2023-04-09T12:27:17.189Z,12.00
2023-04-09T12:32:19.819Z,5.22
2023-04-09T12:37:23.055Z,5.72
2023-04-09T12:42:26.256Z,8.93
2023-04-09T12:47:29.248Z,7.78
2023-04-09T12:52:32.063Z,10.85
2023-04-09T12:57:42.232Z,7.22
2023-04-09T13:02:45.042Z,8.70
2023-04-09T13:08:08.258Z,10.35
2023-04-09T13:13:31.169Z,7.95
2023-04-09T13:18:33.707Z,8.25
2023-04-09T13:23:42.465Z,9.80
2023-04-09T13:28:47.937Z,8.00
2023-04-09T13:33:50.590Z,6.82
2023-04-09T13:38:53.407Z,10.35
2023-04-09T13:44:14.741Z,9.00
2023-04-09T13:49:36.361Z,11.15
2023-04-09T13:54:57.859Z,8.73
2023-04-09T14:00:20.181Z,14.82
2023-04-09T14:05:22.781Z,10.27
2023-04-09T14:10:25.907Z,11.57
2023-04-09T14:15:28.720Z,9.57
2023-04-09T14:20:31.588Z,10.27
2023-04-09T14:25:34.124Z,12.23
2023-04-09T14:30:36.636Z,8.40
2023-04-09T14:35:39.302Z,8.75
2023-04-09T14:40:42.096Z,10.00
2023-04-09T14:45:44.863Z,12.52
2023-04-09T14:50:48.271Z,8.45
2023-04-09T14:55:51.214Z,11.38
2023-04-09T15:00:54.000Z,8.73
2023-04-09T15:05:57.127Z,8.18
2023-04-09T15:10:59.707Z,10.48
2023-04-09T15:16:02.696Z,9.43
2023-04-09T15:21:05.875Z,8.38
2023-04-09T15:26:09.486Z,7.72
2023-04-09T15:31:12.876Z,6.55
2023-04-09T15:36:16.015Z,6.78
2023-04-09T15:41:19.171Z,7.55
2023-04-09T15:46:22.133Z,15.43
2023-04-09T15:51:25.126Z,11.73
2023-04-09T15:56:27.700Z,11.55
2023-04-09T16:01:30.355Z,13.68
2023-04-09T16:06:33.034Z,14.68
2023-04-09T16:11:36.645Z,15.18
2023-04-09T16:16:39.281Z,15.65
2023-04-09T16:21:44.977Z,15.88
2023-04-09T16:26:47.720Z,22.90
2023-04-09T16:31:50.364Z,22.08
2023-04-09T16:36:53.127Z,29.10
2023-04-09T16:41:56.938Z,21.85
2023-04-09T16:46:59.485Z,27.02
2023-04-09T16:52:02.295Z,31.67
2023-04-09T16:57:05.183Z,26.67
2023-04-09T17:02:08.103Z,20.98
2023-04-09T17:07:10.985Z,28.27
2023-04-09T17:12:13.694Z,25.17
2023-04-09T17:17:17.267Z,27.80
2023-04-09T17:22:19.972Z,27.77
2023-04-09T17:27:22.554Z,25.98
2023-04-09T17:32:25.127Z,50.92
2023-04-09T17:37:29.158Z,68.55
2023-04-09T17:47:34.272Z,40.13
2023-04-09T17:52:40.198Z,39.85
2023-04-09T17:57:43.212Z,32.65
2023-04-09T18:02:46.487Z,28.10
2023-04-09T18:07:49.395Z,41.25
2023-04-09T18:12:52.161Z,42.55
2023-04-09T18:17:54.610Z,33.42
2023-04-09T18:22:57.352Z,31.13
2023-04-09T18:28:00.157Z,33.63
2023-04-09T18:33:02.714Z,34.13
2023-04-09T18:38:05.752Z,32.58
2023-04-09T18:43:08.364Z,29.13
2023-04-09T18:48:11.111Z,23.95
2023-04-09T18:53:14.064Z,24.00
2023-04-09T18:58:18.355Z,19.85
2023-04-09T19:03:21.677Z,17.67
2023-04-09T19:08:24.705Z,17.77
2023-04-09T19:13:27.473Z,16.85
2023-04-09T19:18:30.890Z,16.15
2023-04-09T19:23:34.888Z,16.00
2023-04-09T19:28:37.976Z,14.63
2023-04-09T19:33:40.837Z,15.57
2023-04-09T19:38:43.601Z,12.35
2023-04-09T19:43:46.549Z,15.45
2023-04-09T19:48:48.978Z,20.60
2023-04-09T19:53:51.814Z,16.75
2023-04-09T19:58:55.009Z,25.50
2023-04-09T20:03:58.170Z,18.50
2023-04-09T20:09:01.777Z,20.92
2023-04-09T20:14:04.709Z,24.60
2023-04-09T20:19:07.704Z,20.83
2023-04-09T20:24:10.253Z,19.42
2023-04-09T20:29:13.194Z,25.35
2023-04-09T20:34:16.210Z,16.17
2023-04-09T20:39:18.858Z,21.42
2023-04-09T20:44:21.845Z,15.93
2023-04-09T20:49:24.902Z,15.52
2023-04-09T20:54:27.791Z,14.43
2023-04-09T20:59:30.322Z,17.58
2023-04-09T21:04:32.836Z,16.98
2023-04-09T21:09:35.855Z,14.60
2023-04-09T21:14:38.412Z,18.73
2023-04-09T21:19:41.111Z,14.10
2023-04-09T21:24:43.861Z,15.93
2023-04-09T21:29:47.056Z,14.65
2023-04-09T21:34:49.763Z,13.50
2023-04-09T21:39:52.256Z,11.50
2023-04-09T21:44:54.814Z,17.80
2023-04-09T21:49:57.858Z,13.60
2023-04-09T21:55:00.584Z,13.23
2023-04-09T22:00:05.368Z,12.52
2023-04-09T22:05:10.198Z,20.55
2023-04-09T22:10:13.140Z,10.93
2023-04-09T22:15:16.647Z,10.85
2023-04-09T22:20:19.103Z,12.02
2023-04-09T22:25:22.523Z,9.32
2023-04-09T22:30:25.165Z,12.15
2023-04-09T22:35:27.801Z,12.77
2023-04-09T22:40:31.688Z,10.25
2023-04-09T22:45:34.319Z,8.27
2023-04-09T22:50:37.809Z,13.65
2023-04-09T22:55:40.958Z,7.22
2023-04-09T23:00:44.012Z,8.23
2023-04-09T23:05:46.868Z,11.98
2023-04-09T23:10:49.403Z,9.82
2023-04-09T23:15:52.109Z,10.40
2023-04-09T23:20:55.055Z,7.40
2023-04-09T23:25:57.621Z,8.38
2023-04-09T23:31:00.266Z,9.32
2023-04-09T23:36:03.293Z,10.63
2023-04-09T23:41:06.213Z,11.05
2023-04-09T23:46:09.052Z,8.85
2023-04-09T23:51:17.167Z,6.25
2023-04-09T23:56:19.762Z,8.70
